sensor_id;sensor_type;location;lat;lon;timestamp;temperature;humidity
18268;DHT22;9260;49.998;19.880;2022-11-20T00:07:36;-6.60;99.90
18268;DHT22;9260;49.998;19.880;2022-11-20T00:17:41;-6.70;99.90
18268;DHT22;9260;49.998;19.880;2022-11-20T00:27:44;-6.70;99.90
18268;DHT22;9260;49.998;19.880;2022-11-20T00:37:49;-6.90;99.90
18268;DHT22;9260;49.998;19.880;2022-11-20T00:47:53;-7.20;99.90
18268;DHT22;9260;49.998;19.880;2022-11-20T00:57:58;-7.40;99.90
18268;DHT22;9260;49.998;19.880;2022-11-20T01:08:05;-7.50;99.90
18268;DHT22;9260;49.998;19.880;2022-11-20T01:18:10;-7.50;99.90
18268;DHT22;9260;49.998;19.880;2022-11-20T01:28:13;-7.50;99.90
18268;DHT22;9260;49.998;19.880;2022-11-20T01:38:18;-7.50;99.90
18268;DHT22;9260;49.998;19.880;2022-11-20T01:48:26;-7.60;99.90
18268;DHT22;9260;49.998;19.880;2022-11-20T01:58:38;-7.60;99.90
18268;DHT22;9260;49.998;19.880;2022-11-20T02:08:51;-7.80;99.90
18268;DHT22;9260;49.998;19.880;2022-11-20T02:18:58;-7.90;99.90
18268;DHT22;9260;49.998;19.880;2022-11-20T02:29:05;-8.20;99.90
18268;DHT22;9260;49.998;19.880;2022-11-20T02:39:10;-8.40;99.90
18268;DHT22;9260;49.998;19.880;2022-11-20T02:49:16;-8.60;99.90
18268;DHT22;9260;49.998;19.880;2022-11-20T02:59:20;-8.80;99.90
18268;DHT22;9260;49.998;19.880;2022-11-20T03:09:26;-8.80;99.90
18268;DHT22;9260;49.998;19.880;2022-11-20T03:19:29;-8.90;99.90
18268;DHT22;9260;49.998;19.880;2022-11-20T03:29:35;-9.00;99.90
18268;DHT22;9260;49.998;19.880;2022-11-20T03:39:38;-9.00;99.90
18268;DHT22;9260;49.998;19.880;2022-11-20T03:49:43;-9.10;99.90
18268;DHT22;9260;49.998;19.880;2022-11-20T03:59:47;-9.20;99.90
18268;DHT22;9260;49.998;19.880;2022-11-20T04:09:51;-9.20;99.90
18268;DHT22;9260;49.998;19.880;2022-11-20T04:19:55;-9.10;99.90
18268;DHT22;9260;49.998;19.880;2022-11-20T04:30:00;-8.80;99.90
18268;DHT22;9260;49.998;19.880;2022-11-20T04:40:04;-8.90;99.90
18268;DHT22;9260;49.998;19.880;2022-11-20T04:50:10;-8.90;99.90
18268;DHT22;9260;49.998;19.880;2022-11-20T05:00:15;-9.10;99.90
18268;DHT22;9260;49.998;19.880;2022-11-20T05:10:20;-9.20;99.90
18268;DHT22;9260;49.998;19.880;2022-11-20T05:20:24;-9.30;99.90
18268;DHT22;9260;49.998;19.880;2022-11-20T05:30:28;-9.40;99.90
18268;DHT22;9260;49.998;19.880;2022-11-20T05:40:32;-9.40;99.90
18268;DHT22;9260;49.998;19.880;2022-11-20T05:50:37;-9.40;99.90
18268;DHT22;9260;49.998;19.880;2022-11-20T06:00:40;-9.40;99.90
18268;DHT22;9260;49.998;19.880;2022-11-20T06:10:45;-9.50;99.90
18268;DHT22;9260;49.998;19.880;2022-11-20T06:20:49;-9.40;99.90
18268;DHT22;9260;49.998;19.880;2022-11-20T06:30:54;-9.20;99.90
18268;DHT22;9260;49.998;19.880;2022-11-20T06:40:57;-9.10;99.90
18268;DHT22;9260;49.998;19.880;2022-11-20T06:51:04;-8.90;99.90
18268;DHT22;9260;49.998;19.880;2022-11-20T07:01:11;-8.60;99.90
18268;DHT22;9260;49.998;19.880;2022-11-20T07:11:17;-7.80;99.90
18268;DHT22;9260;49.998;19.880;2022-11-20T07:21:21;-7.60;99.90
18268;DHT22;9260;49.998;19.880;2022-11-20T07:31:25;-6.80;99.90
18268;DHT22;9260;49.998;19.880;2022-11-20T07:41:29;-5.90;99.90
18268;DHT22;9260;49.998;19.880;2022-11-20T07:51:34;-5.90;99.90
18268;DHT22;9260;49.998;19.880;2022-11-20T08:01:38;-5.90;99.90
18268;DHT22;9260;49.998;19.880;2022-11-20T08:11:43;-5.60;99.90
18268;DHT22;9260;49.998;19.880;2022-11-20T08:22:03;-5.20;99.90
18268;DHT22;9260;49.998;19.880;2022-11-20T08:32:08;-4.80;99.90
18268;DHT22;9260;49.998;19.880;2022-11-20T08:42:12;-4.20;99.90
18268;DHT22;9260;49.998;19.880;2022-11-20T08:52:17;-3.10;99.90
18268;DHT22;9260;49.998;19.880;2022-11-20T09:02:20;-2.70;99.90
18268;DHT22;9260;49.998;19.880;2022-11-20T09:12:25;-1.90;99.90
18268;DHT22;9260;49.998;19.880;2022-11-20T09:22:29;-1.50;99.90
18268;DHT22;9260;49.998;19.880;2022-11-20T09:32:36;-1.60;99.90
18268;DHT22;9260;49.998;19.880;2022-11-20T09:42:46;-1.60;99.90
18268;DHT22;9260;49.998;19.880;2022-11-20T09:53:12;-1.50;99.90
18268;DHT22;9260;49.998;19.880;2022-11-20T10:03:20;-1.60;99.90
18268;DHT22;9260;49.998;19.880;2022-11-20T10:13:37;-1.60;99.90
18268;DHT22;9260;49.998;19.880;2022-11-20T10:24:03;-1.50;99.90
18268;DHT22;9260;49.998;19.880;2022-11-20T10:34:23;-1.40;99.90
18268;DHT22;9260;49.998;19.880;2022-11-20T10:44:29;-1.30;99.90
18268;DHT22;9260;49.998;19.880;2022-11-20T10:55:06;-1.10;99.90
18268;DHT22;9260;49.998;19.880;2022-11-20T11:05:32;-0.90;99.90
18268;DHT22;9260;49.998;19.880;2022-11-20T11:15:40;-0.80;99.90
18268;DHT22;9260;49.998;19.880;2022-11-20T11:25:56;-0.40;99.90
18268;DHT22;9260;49.998;19.880;2022-11-20T11:36:03;0.00;99.90
18268;DHT22;9260;49.998;19.880;2022-11-20T11:46:30;0.10;99.90
18268;DHT22;9260;49.998;19.880;2022-11-20T11:56:36;0.30;99.90
18268;DHT22;9260;49.998;19.880;2022-11-20T12:06:44;0.90;99.90
18268;DHT22;9260;49.998;19.880;2022-11-20T12:16:52;1.60;99.90
18268;DHT22;9260;49.998;19.880;2022-11-20T12:27:06;1.80;99.90
18268;DHT22;9260;49.998;19.880;2022-11-20T12:37:37;1.40;99.90
18268;DHT22;9260;49.998;19.880;2022-11-20T12:47:59;1.10;99.90
18268;DHT22;9260;49.998;19.880;2022-11-20T12:58:17;0.90;99.90
18268;DHT22;9260;49.998;19.880;2022-11-20T13:08:28;0.70;99.90
18268;DHT22;9260;49.998;19.880;2022-11-20T13:18:38;0.40;99.90
18268;DHT22;9260;49.998;19.880;2022-11-20T13:28:45;0.20;99.90
18268;DHT22;9260;49.998;19.880;2022-11-20T13:38:52;3.00;99.90
18268;DHT22;9260;49.998;19.880;2022-11-20T13:49:07;5.90;99.90
18268;DHT22;9260;49.998;19.880;2022-11-20T13:59:25;4.30;99.90
18268;DHT22;9260;49.998;19.880;2022-11-20T14:09:34;3.00;99.90
18268;DHT22;9260;49.998;19.880;2022-11-20T14:19:40;1.10;99.90
18268;DHT22;9260;49.998;19.880;2022-11-20T14:29:46;0.40;99.90
18268;DHT22;9260;49.998;19.880;2022-11-20T14:39:54;-0.50;99.90
18268;DHT22;9260;49.998;19.880;2022-11-20T14:50:01;-1.60;99.90
18268;DHT22;9260;49.998;19.880;2022-11-20T15:00:20;-2.40;99.90
18268;DHT22;9260;49.998;19.880;2022-11-20T15:10:26;-3.00;99.90
18268;DHT22;9260;49.998;19.880;2022-11-20T15:20:33;-3.40;99.90
18268;DHT22;9260;49.998;19.880;2022-11-20T15:30:36;-3.60;99.90
18268;DHT22;9260;49.998;19.880;2022-11-20T15:40:41;-3.60;99.90
18268;DHT22;9260;49.998;19.880;2022-11-20T15:50:50;-3.50;99.90
18268;DHT22;9260;49.998;19.880;2022-11-20T16:00:57;-3.40;99.90
18268;DHT22;9260;49.998;19.880;2022-11-20T16:11:01;-3.10;99.90
18268;DHT22;9260;49.998;19.880;2022-11-20T16:21:11;-2.70;99.90
18268;DHT22;9260;49.998;19.880;2022-11-20T16:31:17;-2.40;99.90
18268;DHT22;9260;49.998;19.880;2022-11-20T16:41:23;-2.20;99.90
18268;DHT22;9260;49.998;19.880;2022-11-20T16:51:30;-2.20;99.90
18268;DHT22;9260;49.998;19.880;2022-11-20T17:01:38;-2.10;99.90
18268;DHT22;9260;49.998;19.880;2022-11-20T17:11:44;-2.00;99.90
18268;DHT22;9260;49.998;19.880;2022-11-20T17:21:48;-1.90;99.90
18268;DHT22;9260;49.998;19.880;2022-11-20T17:31:53;-2.00;99.90
18268;DHT22;9260;49.998;19.880;2022-11-20T17:41:58;-2.00;99.90
18268;DHT22;9260;49.998;19.880;2022-11-20T17:52:18;-2.10;99.90
18268;DHT22;9260;49.998;19.880;2022-11-20T18:02:23;-2.50;99.90
18268;DHT22;9260;49.998;19.880;2022-11-20T18:12:27;-2.40;99.90
18268;DHT22;9260;49.998;19.880;2022-11-20T18:22:32;-2.60;99.90
18268;DHT22;9260;49.998;19.880;2022-11-20T18:32:35;-2.90;99.90
18268;DHT22;9260;49.998;19.880;2022-11-20T18:42:40;-2.90;99.90
18268;DHT22;9260;49.998;19.880;2022-11-20T18:53:01;-3.20;99.90
18268;DHT22;9260;49.998;19.880;2022-11-20T19:03:06;-3.70;99.90
18268;DHT22;9260;49.998;19.880;2022-11-20T19:13:10;-4.10;99.90
18268;DHT22;9260;49.998;19.880;2022-11-20T19:23:15;-4.40;99.90
18268;DHT22;9260;49.998;19.880;2022-11-20T19:33:22;-4.60;99.90
18268;DHT22;9260;49.998;19.880;2022-11-20T19:43:27;-4.90;99.90
18268;DHT22;9260;49.998;19.880;2022-11-20T19:53:31;-5.30;99.90
18268;DHT22;9260;49.998;19.880;2022-11-20T20:03:36;-5.40;99.90
18268;DHT22;9260;49.998;19.880;2022-11-20T20:13:40;-5.30;99.90
18268;DHT22;9260;49.998;19.880;2022-11-20T20:23:49;-5.40;99.90
18268;DHT22;9260;49.998;19.880;2022-11-20T20:33:54;-5.20;99.90
18268;DHT22;9260;49.998;19.880;2022-11-20T20:44:00;-5.00;99.90
18268;DHT22;9260;49.998;19.880;2022-11-20T20:54:22;-4.60;99.90
18268;DHT22;9260;49.998;19.880;2022-11-20T21:04:27;-4.20;99.90
18268;DHT22;9260;49.998;19.880;2022-11-20T21:14:30;-3.80;99.90
18268;DHT22;9260;49.998;19.880;2022-11-20T21:24:36;-3.80;99.90
18268;DHT22;9260;49.998;19.880;2022-11-20T21:34:39;-3.60;99.90
18268;DHT22;9260;49.998;19.880;2022-11-20T21:44:45;-3.30;99.90
18268;DHT22;9260;49.998;19.880;2022-11-20T21:54:48;-3.00;99.90
18268;DHT22;9260;49.998;19.880;2022-11-20T22:04:53;-2.90;99.90
18268;DHT22;9260;49.998;19.880;2022-11-20T22:14:57;-2.80;99.90
18268;DHT22;9260;49.998;19.880;2022-11-20T22:25:02;-2.60;99.90
18268;DHT22;9260;49.998;19.880;2022-11-20T22:35:06;-2.50;99.90
18268;DHT22;9260;49.998;19.880;2022-11-20T22:45:11;-2.50;99.90
18268;DHT22;9260;49.998;19.880;2022-11-20T22:55:15;-2.40;99.90
18268;DHT22;9260;49.998;19.880;2022-11-20T23:05:20;-2.30;99.90
18268;DHT22;9260;49.998;19.880;2022-11-20T23:15:23;-2.20;99.90
18268;DHT22;9260;49.998;19.880;2022-11-20T23:25:28;-2.10;99.90
18268;DHT22;9260;49.998;19.880;2022-11-20T23:35:32;-2.20;99.90
18268;DHT22;9260;49.998;19.880;2022-11-20T23:45:42;-2.30;99.90
18268;DHT22;9260;49.998;19.880;2022-11-20T23:55:47;-2.80;99.90
